My Little Violet — ZCPE7 — position and weather

sailwx.info

Track history (hours):
 
Tides and Currents Weather Stations Pressure Air Temp Water Temp Dewpoint Dewpoint Depression Visibility Wind Speed Wind Dir Waves Ship Positions

My Little Violet

Last reported at 2014-Jul-25 20:33 UTC. Time now 2014-Jul-25 20:47 UTC.
Position N 43°17' E 006°38'.

Length 45 m.

Type: Pleasure craft. MMSI: 319496000.

Date/timePositionNaut miles runAvg speedWind from/ knotsBaromVisibWave heightAir tempDewpointWater temp
2014-Jul-25 20:33N 43°17' E 006°38'0 0.0
2014-Jul-25 19:34N 43°17' E 006°38'4 4.2
2014-Jul-25 18:33N 43°13' E 006°41'1 0.5
2014-Jul-25 17:32N 43°13' E 006°40'0 0.0
2014-Jul-25 16:33N 43°13' E 006°40'0 0.0
2014-Jul-25 15:33N 43°13' E 006°40'0 0.0
2014-Jul-25 14:33N 43°13' E 006°40'0 0.0
2014-Jul-25 13:33N 43°13' E 006°40'0 0.0
2014-Jul-25 12:33N 43°13' E 006°40'0 0.0
2014-Jul-25 11:33N 43°13' E 006°40'0 0.0
2014-Jul-25 10:33N 43°13' E 006°40'0 0.0
2014-Jul-25 09:33N 43°13' E 006°40'0 0.0
2014-Jul-25 08:33N 43°13' E 006°40'0 0.0
2014-Jul-25 07:33N 43°13' E 006°40'0 0.0
2014-Jul-25 06:33N 43°13' E 006°40'0 0.0
2014-Jul-25 05:33N 43°13' E 006°40'3 3.3
2014-Jul-25 04:34N 43°13' E 006°45'1211.7
2014-Jul-25 03:34N 43°13' E 007°01'1212.0
2014-Jul-25 02:33N 43°17' E 006°45'6 5.6
2014-Jul-25 01:33N 43°17' E 006°38'0 0.0
2014-Jul-25 00:33N 43°17' E 006°38'0 0.0
2014-Jul-24 23:34N 43°17' E 006°38'0 0.0
2014-Jul-24 22:33N 43°17' E 006°38'0 0.0
2014-Jul-24 21:34N 43°17' E 006°38'0 0.0
2014-Jul-24 20:33N 43°17' E 006°38'0 0.0
2014-Jul-24 19:34N 43°17' E 006°38'0 0.0
2014-Jul-24 18:33N 43°17' E 006°38'0 0.0
2014-Jul-24 17:34N 43°17' E 006°38'0 0.0
2014-Jul-24 16:33N 43°17' E 006°38'0 0.0
2014-Jul-24 15:33N 43°17' E 006°38'0 0.0
2014-Jul-24 14:34N 43°17' E 006°38'0 0.0
2014-Jul-24 13:33N 43°17' E 006°38'0 0.0
2014-Jul-24 12:34N 43°17' E 006°38'0 0.0
2014-Jul-24 11:33N 43°17' E 006°38'0 0.0
2014-Jul-24 10:34N 43°17' E 006°38'0 0.0
2014-Jul-24 09:34N 43°17' E 006°38'0 0.0
2014-Jul-24 08:33N 43°17' E 006°38'0 0.0
2014-Jul-24 07:34N 43°17' E 006°38'0 0.0
2014-Jul-24 06:33N 43°17' E 006°38'0 0.0
2014-Jul-24 05:33N 43°17' E 006°38'0 0.0
2014-Jul-24 04:33N 43°17' E 006°38'0 0.0
2014-Jul-24 03:34N 43°17' E 006°38'0 0.0
2014-Jul-24 02:34N 43°17' E 006°38'0 0.0
2014-Jul-24 01:34N 43°17' E 006°38'0 0.0
2014-Jul-24 00:34N 43°17' E 006°38'0 0.0
2014-Jul-23 23:33N 43°17' E 006°38'0 0.0
2014-Jul-23 22:34N 43°17' E 006°38'0 0.0
2014-Jul-23 21:34N 43°17' E 006°38'0 0.0
2014-Jul-23 20:33N 43°17' E 006°38'0 0.0
2014-Jul-23 19:33N 43°17' E 006°38'0 0.0
2014-Jul-23 18:33N 43°17' E 006°37'0 0.0
2014-Jul-23 17:34N 43°17' E 006°37'4 4.2
2014-Jul-23 16:34N 43°15' E 006°43'3 2.6
2014-Jul-23 15:33N 43°13' E 006°40'0 0.0
2014-Jul-23 14:34N 43°13' E 006°40'0 0.0
2014-Jul-23 13:34N 43°13' E 006°40'0 0.0
2014-Jul-23 12:34N 43°13' E 006°40'0 0.0
2014-Jul-23 11:34N 43°13' E 006°40'4 3.9
2014-Jul-23 10:33N 43°16' E 006°43'4 4.1
2014-Jul-23 09:34N 43°17' E 006°38'0 0.0
2014-Jul-23 08:33N 43°17' E 006°38'0 0.0
2014-Jul-23 07:34N 43°17' E 006°38'0 0.0
2014-Jul-23 06:34N 43°17' E 006°38'0 0.0
2014-Jul-23 05:33N 43°17' E 006°38'0 0.0
2014-Jul-23 04:34N 43°17' E 006°38'0 0.0
2014-Jul-23 03:34N 43°17' E 006°38'0 0.0
2014-Jul-23 02:33N 43°17' E 006°38'0 0.0
2014-Jul-23 01:34N 43°17' E 006°38'0 0.0
2014-Jul-23 00:34N 43°17' E 006°38'0 0.0
2014-Jul-22 23:33N 43°17' E 006°38'0 0.0
2014-Jul-22 22:33N 43°17' E 006°38'0 0.0
2014-Jul-22 21:33N 43°17' E 006°38'0 0.0
2014-Jul-22 20:33N 43°17' E 006°38'0 0.0
2014-Jul-22 19:33N 43°17' E 006°38'0 0.0
2014-Jul-22 18:33N 43°17' E 006°38'4 4.2
2014-Jul-22 17:33N 43°16' E 006°43'3 3.1
2014-Jul-22 16:33N 43°14' E 006°40'0 0.0
2014-Jul-22 15:33N 43°14' E 006°40'0 0.0
2014-Jul-22 14:33N 43°14' E 006°40'0 0.0
2014-Jul-22 13:33N 43°14' E 006°40'3 3.2
2014-Jul-22 12:33N 43°16' E 006°38'0 0.1
2014-Jul-22 11:34N 43°16' E 006°38'0 0.0
2014-Jul-22 10:33N 43°16' E 006°38'0 0.0
2014-Jul-22 09:34N 43°16' E 006°38'0 0.0
2014-Jul-22 08:34N 43°16' E 006°38'0 0.0
2014-Jul-22 07:33N 43°16' E 006°38'0 0.0
2014-Jul-22 06:34N 43°16' E 006°38'0 0.0
2014-Jul-22 05:34N 43°16' E 006°38'0 0.0
2014-Jul-22 04:34N 43°16' E 006°38'0 0.0
2014-Jul-22 03:34N 43°16' E 006°38'0 0.0
2014-Jul-22 02:34N 43°16' E 006°38'0 0.0
2014-Jul-22 01:34N 43°16' E 006°38'0 0.0
2014-Jul-22 00:34N 43°16' E 006°38'0 0.0
2014-Jul-21 23:33N 43°16' E 006°38'0 0.0
2014-Jul-21 22:33N 43°16' E 006°38'0 0.0
2014-Jul-21 21:34N 43°16' E 006°38'0 0.0
2014-Jul-21 20:33N 43°16' E 006°38'0 0.0
2014-Jul-21 20:18N 43°16' E 006°38'0 0.0
2014-Jul-21 19:34N 43°16' E 006°38'0 0.0
2014-Jul-21 18:34N 43°16' E 006°38'0 0.0
2014-Jul-21 17:34N 43°16' E 006°38'0 0.0
2014-Jul-21 16:34N 43°16' E 006°38'0 0.0
2014-Jul-21 15:33N 43°16' E 006°38'0 0.0
2014-Jul-21 14:33N 43°16' E 006°38'0 0.0
2014-Jul-21 13:34N 43°16' E 006°38'0 0.0
2014-Jul-21 12:34N 43°16' E 006°38'0 0.0
2014-Jul-21 11:33N 43°16' E 006°38'0 0.0
2014-Jul-21 10:33N 43°16' E 006°38'0 0.0
2014-Jul-21 09:33N 43°16' E 006°38'0 0.0
2014-Jul-21 08:34N 43°16' E 006°38'0 0.0
2014-Jul-21 07:33N 43°16' E 006°38'0 0.0
2014-Jul-21 06:34N 43°16' E 006°38'0 0.0
2014-Jul-21 05:34N 43°16' E 006°38'0 0.0
2014-Jul-21 04:33N 43°16' E 006°38'0 0.0
2014-Jul-21 03:33N 43°16' E 006°38'0 0.0
2014-Jul-21 02:34N 43°16' E 006°38'0 0.0
2014-Jul-21 01:34N 43°16' E 006°38'0 0.0
2014-Jul-21 00:34N 43°16' E 006°38'0 0.0
2014-Jul-20 23:34N 43°16' E 006°38'0 0.0
2014-Jul-20 22:34N 43°16' E 006°38'0 0.0
2014-Jul-20 21:33N 43°16' E 006°38'0 0.0
2014-Jul-20 20:34N 43°16' E 006°38'0 0.0
2014-Jul-20 19:33N 43°16' E 006°38'0 0.0
2014-Jul-20 18:33N 43°16' E 006°38'0 0.0
2014-Jul-20 17:33N 43°16' E 006°38'0 0.0
2014-Jul-20 16:34N 43°16' E 006°38'0 0.0
2014-Jul-20 15:34N 43°16' E 006°38'0 0.0
2014-Jul-20 14:33N 43°16' E 006°38'0 0.0
2014-Jul-20 13:33N 43°16' E 006°38'0 0.0
2014-Jul-20 12:34N 43°16' E 006°38'0 0.0
2014-Jul-20 11:34N 43°16' E 006°38'0 0.0
2014-Jul-20 10:34N 43°16' E 006°38'0 0.0
2014-Jul-20 09:34N 43°16' E 006°38'0 0.0
2014-Jul-20 08:34N 43°16' E 006°38'0 0.0
2014-Jul-20 07:34N 43°16' E 006°38'0 0.0
2014-Jul-20 06:34N 43°16' E 006°38'0 0.0
2014-Jul-20 05:34N 43°16' E 006°38'0 0.0
2014-Jul-20 04:33N 43°16' E 006°38'0 0.0
2014-Jul-20 03:33N 43°16' E 006°38'0 0.0
2014-Jul-20 02:33N 43°16' E 006°38'0 0.0
2014-Jul-20 01:33N 43°16' E 006°38'0 0.0
2014-Jul-20 00:33N 43°16' E 006°38'0 0.0
2014-Jul-19 23:33N 43°16' E 006°38'0 0.0
2014-Jul-19 22:33N 43°16' E 006°38'0 0.0
2014-Jul-19 21:34N 43°16' E 006°38'0 0.0
2014-Jul-19 20:34N 43°16' E 006°38'0 0.0
2014-Jul-19 19:33N 43°16' E 006°38'0 0.0
2014-Jul-19 18:33N 43°16' E 006°38'4 3.7
2014-Jul-19 17:34N 43°16' E 006°43'3 3.2
2014-Jul-19 16:34N 43°13' E 006°40'0 0.0
2014-Jul-19 15:33N 43°13' E 006°40'0 0.0
2014-Jul-19 14:33N 43°13' E 006°40'0 0.0
2014-Jul-19 13:34N 43°13' E 006°40'0 0.0
2014-Jul-19 12:34N 43°13' E 006°40'4 3.6
2014-Jul-19 11:34N 43°16' E 006°38'0 0.0
2014-Jul-19 10:34N 43°16' E 006°38'0 0.0
2014-Jul-19 09:34N 43°16' E 006°38'0 0.0
2014-Jul-19 08:33N 43°16' E 006°38'0 0.0
2014-Jul-19 07:33N 43°16' E 006°38'0 0.0
2014-Jul-19 06:34N 43°16' E 006°38'0 0.0
2014-Jul-19 05:33N 43°16' E 006°38'0 0.0
2014-Jul-19 04:34N 43°16' E 006°38'0 0.0
2014-Jul-19 03:34N 43°16' E 006°38'0 0.0
2014-Jul-19 02:34N 43°16' E 006°38'0 0.0
2014-Jul-19 01:34N 43°16' E 006°38'0 0.0
2014-Jul-19 00:34N 43°16' E 006°38'0 0.0
2014-Jul-18 23:34N 43°16' E 006°38'0 0.0
2014-Jul-18 22:33N 43°16' E 006°38'0 0.0
2014-Jul-18 21:33N 43°16' E 006°38'0 0.0
2014-Jul-18 20:33N 43°16' E 006°38'0 0.0
2014-Jul-18 19:34N 43°16' E 006°38'0 0.0
2014-Jul-18 18:33N 43°16' E 006°38'0 0.3
2014-Jul-18 17:33N 43°17' E 006°38'3 3.4
2014-Jul-18 16:33N 43°14' E 006°40'0 0.0
2014-Jul-18 15:33N 43°14' E 006°40'0 0.0
2014-Jul-18 14:34N 43°14' E 006°40'0 0.0
2014-Jul-18 13:33N 43°14' E 006°40'0 0.0
2014-Jul-18 12:33N 43°14' E 006°40'2 1.7
2014-Jul-18 11:34N 43°15' E 006°42'4 3.8
2014-Jul-18 10:33N 43°17' E 006°38'0 0.0
2014-Jul-18 09:33N 43°17' E 006°38'0 0.0
2014-Jul-18 08:33N 43°16' E 006°38'0 0.0
2014-Jul-18 07:34N 43°17' E 006°38'0 0.0
2014-Jul-18 06:33N 43°17' E 006°38'0 0.0
2014-Jul-18 05:34N 43°16' E 006°38'0 0.0
2014-Jul-18 04:33N 43°17' E 006°38'0 0.0
2014-Jul-18 03:34N 43°17' E 006°38'0 0.0
2014-Jul-18 02:33N 43°16' E 006°38'0 0.0
2014-Jul-18 01:33N 43°17' E 006°38'0 0.0
2014-Jul-18 00:34N 43°17' E 006°38'0 0.0
2014-Jul-17 23:34N 43°17' E 006°38'0 0.0
2014-Jul-17 22:32N 43°17' E 006°38'0 0.0
2014-Jul-17 21:34N 43°17' E 006°38'0 0.0
2014-Jul-17 20:33N 43°17' E 006°38'0 0.0
2014-Jul-17 19:34N 43°17' E 006°38'0 0.0
2014-Jul-17 18:33N 43°17' E 006°38'3 3.4
2014-Jul-17 17:33N 43°14' E 006°40'0 0.0
2014-Jul-17 16:33N 43°14' E 006°40'0 0.0
2014-Jul-17 15:33N 43°14' E 006°40'0 0.0
2014-Jul-17 14:33N 43°14' E 006°40'0 0.0
2014-Jul-17 13:34N 43°14' E 006°40'0 0.0
2014-Jul-17 12:34N 43°14' E 006°40'0 0.4
2014-Jul-17 11:34N 43°14' E 006°41'4 3.5
2014-Jul-17 10:33N 43°17' E 006°38'0 0.0
2014-Jul-17 09:33N 43°17' E 006°38'0 0.0
2014-Jul-17 08:33N 43°17' E 006°38'0 0.0
2014-Jul-17 07:32N 43°17' E 006°38'0 0.0
2014-Jul-17 06:33N 43°17' E 006°38'0 0.0
2014-Jul-17 05:33N 43°17' E 006°38'0 0.0
2014-Jul-17 04:34N 43°17' E 006°38'0 0.0
2014-Jul-17 03:34N 43°17' E 006°38'0 0.0
2014-Jul-17 02:33N 43°17' E 006°38'0 0.0
2014-Jul-17 01:34N 43°17' E 006°38'0 0.1
2014-Jul-17 00:34N 43°17' E 006°38'2 1.7
2014-Jul-16 23:34N 43°17' E 006°40'0 0.0
2014-Jul-16 22:33N 43°17' E 006°40'0 0.0
2014-Jul-16 21:34N 43°17' E 006°40'0 0.0
2014-Jul-16 20:33N 43°17' E 006°40'2 1.7
2014-Jul-16 19:33N 43°17' E 006°42'4 3.8
2014-Jul-16 18:33N 43°14' E 006°40'0 0.0
2014-Jul-16 17:34N 43°14' E 006°40'0 0.0
2014-Jul-16 16:33N 43°14' E 006°40'0 0.0
2014-Jul-16 15:34N 43°14' E 006°40'0 0.0
2014-Jul-16 14:34N 43°14' E 006°40'0 0.0
2014-Jul-16 13:33N 43°14' E 006°40'0 0.0
2014-Jul-16 12:33N 43°14' E 006°40'0 0.0
2014-Jul-16 11:33N 43°14' E 006°40'4 3.8
2014-Jul-16 10:33N 43°17' E 006°43'4 3.6
2014-Jul-16 09:33N 43°16' E 006°38'0 0.0
2014-Jul-16 08:33N 43°16' E 006°38'0 0.0
2014-Jul-16 07:33N 43°16' E 006°38'0 0.0
2014-Jul-16 06:33N 43°16' E 006°38'0 0.0
2014-Jul-16 05:33N 43°16' E 006°38'0 0.0
2014-Jul-16 04:30N 43°16' E 006°38'0 0.0
2014-Jul-16 03:33N 43°16' E 006°38'0 0.0
2014-Jul-16 02:33N 43°16' E 006°38'0 0.0
2014-Jul-16 01:33N 43°16' E 006°38'0 0.0
2014-Jul-16 00:33N 43°16' E 006°38'0 0.0
2014-Jul-15 23:33N 43°16' E 006°38'0 0.0
2014-Jul-15 22:33N 43°16' E 006°38'0 0.0
2014-Jul-15 21:28N 43°16' E 006°38'  
Track history (hours):
 
Tides and Currents Weather Stations Pressure Air Temp Water Temp Dewpoint Dewpoint Depression Visibility Wind Speed Wind Dir Waves Ship Positions

My Little Violet

Last reported at 2014-Jul-25 20:33 UTC. Time now 2014-Jul-25 20:47 UTC.
Position N 43°17' E 006°38'.

Length 45 m.

Type: Pleasure craft. MMSI: 319496000.

Date/timePositionNaut miles runAvg speedWind from/ knotsBaromVisibWave heightAir tempDewpointWater temp
2014-Jul-25 20:33N 43°17' E 006°38'0 0.0
2014-Jul-25 19:34N 43°17' E 006°38'4 4.2
2014-Jul-25 18:33N 43°13' E 006°41'1 0.5
2014-Jul-25 17:32N 43°13' E 006°40'0 0.0
2014-Jul-25 16:33N 43°13' E 006°40'0 0.0
2014-Jul-25 15:33N 43°13' E 006°40'0 0.0
2014-Jul-25 14:33N 43°13' E 006°40'0 0.0
2014-Jul-25 13:33N 43°13' E 006°40'0 0.0
2014-Jul-25 12:33N 43°13' E 006°40'0 0.0
2014-Jul-25 11:33N 43°13' E 006°40'0 0.0
2014-Jul-25 10:33N 43°13' E 006°40'0 0.0
2014-Jul-25 09:33N 43°13' E 006°40'0 0.0
2014-Jul-25 08:33N 43°13' E 006°40'0 0.0
2014-Jul-25 07:33N 43°13' E 006°40'0 0.0
2014-Jul-25 06:33N 43°13' E 006°40'0 0.0
2014-Jul-25 05:33N 43°13' E 006°40'3 3.3
2014-Jul-25 04:34N 43°13' E 006°45'1211.7
2014-Jul-25 03:34N 43°13' E 007°01'1212.0
2014-Jul-25 02:33N 43°17' E 006°45'6 5.6
2014-Jul-25 01:33N 43°17' E 006°38'0 0.0
2014-Jul-25 00:33N 43°17' E 006°38'0 0.0
2014-Jul-24 23:34N 43°17' E 006°38'0 0.0
2014-Jul-24 22:33N 43°17' E 006°38'0 0.0
2014-Jul-24 21:34N 43°17' E 006°38'0 0.0
2014-Jul-24 20:33N 43°17' E 006°38'0 0.0
2014-Jul-24 19:34N 43°17' E 006°38'0 0.0
2014-Jul-24 18:33N 43°17' E 006°38'0 0.0
2014-Jul-24 17:34N 43°17' E 006°38'0 0.0
2014-Jul-24 16:33N 43°17' E 006°38'0 0.0
2014-Jul-24 15:33N 43°17' E 006°38'0 0.0
2014-Jul-24 14:34N 43°17' E 006°38'0 0.0
2014-Jul-24 13:33N 43°17' E 006°38'0 0.0
2014-Jul-24 12:34N 43°17' E 006°38'0 0.0
2014-Jul-24 11:33N 43°17' E 006°38'0 0.0
2014-Jul-24 10:34N 43°17' E 006°38'0 0.0
2014-Jul-24 09:34N 43°17' E 006°38'0 0.0
2014-Jul-24 08:33N 43°17' E 006°38'0 0.0
2014-Jul-24 07:34N 43°17' E 006°38'0 0.0
2014-Jul-24 06:33N 43°17' E 006°38'0 0.0
2014-Jul-24 05:33N 43°17' E 006°38'0 0.0
2014-Jul-24 04:33N 43°17' E 006°38'0 0.0
2014-Jul-24 03:34N 43°17' E 006°38'0 0.0
2014-Jul-24 02:34N 43°17' E 006°38'0 0.0
2014-Jul-24 01:34N 43°17' E 006°38'0 0.0
2014-Jul-24 00:34N 43°17' E 006°38'0 0.0
2014-Jul-23 23:33N 43°17' E 006°38'0 0.0
2014-Jul-23 22:34N 43°17' E 006°38'0 0.0
2014-Jul-23 21:34N 43°17' E 006°38'0 0.0
2014-Jul-23 20:33N 43°17' E 006°38'0 0.0
2014-Jul-23 19:33N 43°17' E 006°38'0 0.0
2014-Jul-23 18:33N 43°17' E 006°37'0 0.0
2014-Jul-23 17:34N 43°17' E 006°37'4 4.2
2014-Jul-23 16:34N 43°15' E 006°43'3 2.6
2014-Jul-23 15:33N 43°13' E 006°40'0 0.0
2014-Jul-23 14:34N 43°13' E 006°40'0 0.0
2014-Jul-23 13:34N 43°13' E 006°40'0 0.0
2014-Jul-23 12:34N 43°13' E 006°40'0 0.0
2014-Jul-23 11:34N 43°13' E 006°40'4 3.9
2014-Jul-23 10:33N 43°16' E 006°43'4 4.1
2014-Jul-23 09:34N 43°17' E 006°38'0 0.0
2014-Jul-23 08:33N 43°17' E 006°38'0 0.0
2014-Jul-23 07:34N 43°17' E 006°38'0 0.0
2014-Jul-23 06:34N 43°17' E 006°38'0 0.0
2014-Jul-23 05:33N 43°17' E 006°38'0 0.0
2014-Jul-23 04:34N 43°17' E 006°38'0 0.0
2014-Jul-23 03:34N 43°17' E 006°38'0 0.0
2014-Jul-23 02:33N 43°17' E 006°38'0 0.0
2014-Jul-23 01:34N 43°17' E 006°38'0 0.0
2014-Jul-23 00:34N 43°17' E 006°38'0 0.0
2014-Jul-22 23:33N 43°17' E 006°38'0 0.0
2014-Jul-22 22:33N 43°17' E 006°38'0 0.0
2014-Jul-22 21:33N 43°17' E 006°38'0 0.0
2014-Jul-22 20:33N 43°17' E 006°38'0 0.0
2014-Jul-22 19:33N 43°17' E 006°38'0 0.0
2014-Jul-22 18:33N 43°17' E 006°38'4 4.2
2014-Jul-22 17:33N 43°16' E 006°43'3 3.1
2014-Jul-22 16:33N 43°14' E 006°40'0 0.0
2014-Jul-22 15:33N 43°14' E 006°40'0 0.0
2014-Jul-22 14:33N 43°14' E 006°40'0 0.0
2014-Jul-22 13:33N 43°14' E 006°40'3 3.2
2014-Jul-22 12:33N 43°16' E 006°38'0 0.1
2014-Jul-22 11:34N 43°16' E 006°38'0 0.0
2014-Jul-22 10:33N 43°16' E 006°38'0 0.0
2014-Jul-22 09:34N 43°16' E 006°38'0 0.0
2014-Jul-22 08:34N 43°16' E 006°38'0 0.0
2014-Jul-22 07:33N 43°16' E 006°38'0 0.0
2014-Jul-22 06:34N 43°16' E 006°38'0 0.0
2014-Jul-22 05:34N 43°16' E 006°38'0 0.0
2014-Jul-22 04:34N 43°16' E 006°38'0 0.0
2014-Jul-22 03:34N 43°16' E 006°38'0 0.0
2014-Jul-22 02:34N 43°16' E 006°38'0 0.0
2014-Jul-22 01:34N 43°16' E 006°38'0 0.0
2014-Jul-22 00:34N 43°16' E 006°38'0 0.0
2014-Jul-21 23:33N 43°16' E 006°38'0 0.0
2014-Jul-21 22:33N 43°16' E 006°38'0 0.0
2014-Jul-21 21:34N 43°16' E 006°38'0 0.0
2014-Jul-21 20:33N 43°16' E 006°38'0 0.0
2014-Jul-21 20:18N 43°16' E 006°38'0 0.0
2014-Jul-21 19:34N 43°16' E 006°38'0 0.0
2014-Jul-21 18:34N 43°16' E 006°38'0 0.0
2014-Jul-21 17:34N 43°16' E 006°38'0 0.0
2014-Jul-21 16:34N 43°16' E 006°38'0 0.0
2014-Jul-21 15:33N 43°16' E 006°38'0 0.0
2014-Jul-21 14:33N 43°16' E 006°38'0 0.0
2014-Jul-21 13:34N 43°16' E 006°38'0 0.0
2014-Jul-21 12:34N 43°16' E 006°38'0 0.0
2014-Jul-21 11:33N 43°16' E 006°38'0 0.0
2014-Jul-21 10:33N 43°16' E 006°38'0 0.0
2014-Jul-21 09:33N 43°16' E 006°38'0 0.0
2014-Jul-21 08:34N 43°16' E 006°38'0 0.0
2014-Jul-21 07:33N 43°16' E 006°38'0 0.0
2014-Jul-21 06:34N 43°16' E 006°38'0 0.0
2014-Jul-21 05:34N 43°16' E 006°38'0 0.0
2014-Jul-21 04:33N 43°16' E 006°38'0 0.0
2014-Jul-21 03:33N 43°16' E 006°38'0 0.0
2014-Jul-21 02:34N 43°16' E 006°38'0 0.0
2014-Jul-21 01:34N 43°16' E 006°38'0 0.0
2014-Jul-21 00:34N 43°16' E 006°38'0 0.0
2014-Jul-20 23:34N 43°16' E 006°38'0 0.0
2014-Jul-20 22:34N 43°16' E 006°38'0 0.0
2014-Jul-20 21:33N 43°16' E 006°38'0 0.0
2014-Jul-20 20:34N 43°16' E 006°38'0 0.0
2014-Jul-20 19:33N 43°16' E 006°38'0 0.0
2014-Jul-20 18:33N 43°16' E 006°38'0 0.0
2014-Jul-20 17:33N 43°16' E 006°38'0 0.0
2014-Jul-20 16:34N 43°16' E 006°38'0 0.0
2014-Jul-20 15:34N 43°16' E 006°38'0 0.0
2014-Jul-20 14:33N 43°16' E 006°38'0 0.0
2014-Jul-20 13:33N 43°16' E 006°38'0 0.0
2014-Jul-20 12:34N 43°16' E 006°38'0 0.0
2014-Jul-20 11:34N 43°16' E 006°38'0 0.0
2014-Jul-20 10:34N 43°16' E 006°38'0 0.0
2014-Jul-20 09:34N 43°16' E 006°38'0 0.0
2014-Jul-20 08:34N 43°16' E 006°38'0 0.0
2014-Jul-20 07:34N 43°16' E 006°38'0 0.0
2014-Jul-20 06:34N 43°16' E 006°38'0 0.0
2014-Jul-20 05:34N 43°16' E 006°38'0 0.0
2014-Jul-20 04:33N 43°16' E 006°38'0 0.0
2014-Jul-20 03:33N 43°16' E 006°38'0 0.0
2014-Jul-20 02:33N 43°16' E 006°38'0 0.0
2014-Jul-20 01:33N 43°16' E 006°38'0 0.0
2014-Jul-20 00:33N 43°16' E 006°38'0 0.0
2014-Jul-19 23:33N 43°16' E 006°38'0 0.0
2014-Jul-19 22:33N 43°16' E 006°38'0 0.0
2014-Jul-19 21:34N 43°16' E 006°38'0 0.0
2014-Jul-19 20:34N 43°16' E 006°38'0 0.0
2014-Jul-19 19:33N 43°16' E 006°38'0 0.0
2014-Jul-19 18:33N 43°16' E 006°38'4 3.7
2014-Jul-19 17:34N 43°16' E 006°43'3 3.2
2014-Jul-19 16:34N 43°13' E 006°40'0 0.0
2014-Jul-19 15:33N 43°13' E 006°40'0 0.0
2014-Jul-19 14:33N 43°13' E 006°40'0 0.0
2014-Jul-19 13:34N 43°13' E 006°40'0 0.0
2014-Jul-19 12:34N 43°13' E 006°40'4 3.6
2014-Jul-19 11:34N 43°16' E 006°38'0 0.0
2014-Jul-19 10:34N 43°16' E 006°38'0 0.0
2014-Jul-19 09:34N 43°16' E 006°38'0 0.0
2014-Jul-19 08:33N 43°16' E 006°38'0 0.0
2014-Jul-19 07:33N 43°16' E 006°38'0 0.0
2014-Jul-19 06:34N 43°16' E 006°38'0 0.0
2014-Jul-19 05:33N 43°16' E 006°38'0 0.0
2014-Jul-19 04:34N 43°16' E 006°38'0 0.0
2014-Jul-19 03:34N 43°16' E 006°38'0 0.0
2014-Jul-19 02:34N 43°16' E 006°38'0 0.0
2014-Jul-19 01:34N 43°16' E 006°38'0 0.0
2014-Jul-19 00:34N 43°16' E 006°38'0 0.0
2014-Jul-18 23:34N 43°16' E 006°38'0 0.0
2014-Jul-18 22:33N 43°16' E 006°38'0 0.0
2014-Jul-18 21:33N 43°16' E 006°38'0 0.0
2014-Jul-18 20:33N 43°16' E 006°38'0 0.0
2014-Jul-18 19:34N 43°16' E 006°38'0 0.0
2014-Jul-18 18:33N 43°16' E 006°38'0 0.3
2014-Jul-18 17:33N 43°17' E 006°38'3 3.4
2014-Jul-18 16:33N 43°14' E 006°40'0 0.0
2014-Jul-18 15:33N 43°14' E 006°40'0 0.0
2014-Jul-18 14:34N 43°14' E 006°40'0 0.0
2014-Jul-18 13:33N 43°14' E 006°40'0 0.0
2014-Jul-18 12:33N 43°14' E 006°40'2 1.7
2014-Jul-18 11:34N 43°15' E 006°42'4 3.8
2014-Jul-18 10:33N 43°17' E 006°38'0 0.0
2014-Jul-18 09:33N 43°17' E 006°38'0 0.0
2014-Jul-18 08:33N 43°16' E 006°38'0 0.0
2014-Jul-18 07:34N 43°17' E 006°38'0 0.0
2014-Jul-18 06:33N 43°17' E 006°38'0 0.0
2014-Jul-18 05:34N 43°16' E 006°38'0 0.0
2014-Jul-18 04:33N 43°17' E 006°38'0 0.0
2014-Jul-18 03:34N 43°17' E 006°38'0 0.0
2014-Jul-18 02:33N 43°16' E 006°38'0 0.0
2014-Jul-18 01:33N 43°17' E 006°38'0 0.0
2014-Jul-18 00:34N 43°17' E 006°38'0 0.0
2014-Jul-17 23:34N 43°17' E 006°38'0 0.0
2014-Jul-17 22:32N 43°17' E 006°38'0 0.0
2014-Jul-17 21:34N 43°17' E 006°38'0 0.0
2014-Jul-17 20:33N 43°17' E 006°38'0 0.0
2014-Jul-17 19:34N 43°17' E 006°38'0 0.0
2014-Jul-17 18:33N 43°17' E 006°38'3 3.4
2014-Jul-17 17:33N 43°14' E 006°40'0 0.0
2014-Jul-17 16:33N 43°14' E 006°40'0 0.0
2014-Jul-17 15:33N 43°14' E 006°40'0 0.0
2014-Jul-17 14:33N 43°14' E 006°40'0 0.0
2014-Jul-17 13:34N 43°14' E 006°40'0 0.0
2014-Jul-17 12:34N 43°14' E 006°40'0 0.4
2014-Jul-17 11:34N 43°14' E 006°41'4 3.5
2014-Jul-17 10:33N 43°17' E 006°38'0 0.0
2014-Jul-17 09:33N 43°17' E 006°38'0 0.0
2014-Jul-17 08:33N 43°17' E 006°38'0 0.0
2014-Jul-17 07:32N 43°17' E 006°38'0 0.0
2014-Jul-17 06:33N 43°17' E 006°38'0 0.0
2014-Jul-17 05:33N 43°17' E 006°38'0 0.0
2014-Jul-17 04:34N 43°17' E 006°38'0 0.0
2014-Jul-17 03:34N 43°17' E 006°38'0 0.0
2014-Jul-17 02:33N 43°17' E 006°38'0 0.0
2014-Jul-17 01:34N 43°17' E 006°38'0 0.1
2014-Jul-17 00:34N 43°17' E 006°38'2 1.7
2014-Jul-16 23:34N 43°17' E 006°40'0 0.0
2014-Jul-16 22:33N 43°17' E 006°40'0 0.0
2014-Jul-16 21:34N 43°17' E 006°40'0 0.0
2014-Jul-16 20:33N 43°17' E 006°40'2 1.7
2014-Jul-16 19:33N 43°17' E 006°42'4 3.8
2014-Jul-16 18:33N 43°14' E 006°40'0 0.0
2014-Jul-16 17:34N 43°14' E 006°40'0 0.0
2014-Jul-16 16:33N 43°14' E 006°40'0 0.0
2014-Jul-16 15:34N 43°14' E 006°40'0 0.0
2014-Jul-16 14:34N 43°14' E 006°40'0 0.0
2014-Jul-16 13:33N 43°14' E 006°40'0 0.0
2014-Jul-16 12:33N 43°14' E 006°40'0 0.0
2014-Jul-16 11:33N 43°14' E 006°40'4 3.8
2014-Jul-16 10:33N 43°17' E 006°43'4 3.6
2014-Jul-16 09:33N 43°16' E 006°38'0 0.0
2014-Jul-16 08:33N 43°16' E 006°38'0 0.0
2014-Jul-16 07:33N 43°16' E 006°38'0 0.0
2014-Jul-16 06:33N 43°16' E 006°38'0 0.0
2014-Jul-16 05:33N 43°16' E 006°38'0 0.0
2014-Jul-16 04:30N 43°16' E 006°38'0 0.0
2014-Jul-16 03:33N 43°16' E 006°38'0 0.0
2014-Jul-16 02:33N 43°16' E 006°38'0 0.0
2014-Jul-16 01:33N 43°16' E 006°38'0 0.0
2014-Jul-16 00:33N 43°16' E 006°38'0 0.0
2014-Jul-15 23:33N 43°16' E 006°38'0 0.0
2014-Jul-15 22:33N 43°16' E 006°38'0 0.0
2014-Jul-15 21:28N 43°16' E 006°38'  

Dump ship's entire track history